Time;durP1;ratioP1;P1;durP2;ratioP2;P2;SDS_P1;SDS_P2;PMS_P1;PMS_P2;Temp;Humidity;BMP_temperature;BMP_pressure;BME280_temperature;BME280_humidity;BME280_pressure;Samples;Min_cycle;Max_cycle;Signal;HPM_P1;HPM_P2
2021/07/19 00:00:08;;;;;;;34.90;23.85;;;;;;;21.52;83.39;98911.78;5094792;28;20040;-66
2021/07/19 00:02:34;;;;;;;36.40;23.42;;;;;;;21.66;82.51;98920.47;5094625;28;20510;-65
2021/07/19 00:05:00;;;;;;;32.47;22.67;;;;;;;22.04;81.27;98935.94;5112406;28;20032;-67
2021/07/19 00:07:25;;;;;;;36.67;23.55;;;;;;;21.92;80.74;98926.28;5111929;28;20047;-66
2021/07/19 00:09:51;;;;;;;31.73;21.50;;;;;;;22.45;79.29;98935.94;5111303;28;20417;-65
2021/07/19 00:12:17;;;;;;;35.90;23.50;;;;;;;22.42;78.88;98932.69;5112815;28;20040;-66
2021/07/19 00:14:44;;;;;;;35.08;23.58;;;;;;;22.21;79.40;98919.34;5111073;28;20058;-65
2021/07/19 00:17:10;;;;;;;41.70;27.40;;;;;;;21.70;81.76;98930.72;5111363;28;20075;-65
2021/07/19 00:19:36;;;;;;;38.42;27.33;;;;;;;21.42;82.71;98923.31;5093848;28;20126;-63
2021/07/19 00:22:03;;;;;;;43.72;26.98;;;;;;;21.45;82.81;98923.06;5112216;28;20077;-66
2021/07/19 00:24:29;;;;;;;35.58;23.90;;;;;;;21.81;82.04;98944.00;5112765;28;20039;-64
2021/07/19 00:26:55;;;;;;;33.55;22.13;;;;;;;22.51;78.65;98938.06;5112344;28;20046;-66
2021/07/19 00:29:20;;;;;;;33.55;21.08;;;;;;;22.91;76.65;98923.97;5094230;28;20047;-66
2021/07/19 00:31:46;;;;;;;34.05;21.67;;;;;;;22.57;78.01;98942.03;5059529;28;20031;-65
2021/07/19 00:34:12;;;;;;;30.00;20.13;;;;;;;22.57;78.20;98930.53;5093484;28;20509;-64
2021/07/19 00:36:39;;;;;;;33.58;21.70;;;;;;;22.36;78.82;98935.88;5092031;28;20043;-66
2021/07/19 00:39:08;;;;;;;31.42;22.20;;;;;;;22.07;79.86;98927.69;5111694;28;20099;-68
2021/07/19 00:41:33;;;;;;;32.30;21.80;;;;;;;21.85;80.98;98926.78;5091509;28;20074;-67
2021/07/19 00:43:59;;;;;;;35.45;24.38;;;;;;;21.58;81.66;98912.28;5076101;28;20079;-67
2021/07/19 00:46:25;;;;;;;31.42;22.30;;;;;;;21.49;82.36;98922.66;5109145;28;20150;-67
2021/07/19 00:48:51;;;;;;;33.47;23.35;;;;;;;21.41;83.00;98926.94;5093135;28;20071;-68
2021/07/19 00:51:18;;;;;;;30.80;23.55;;;;;;;21.31;83.45;98918.88;5058286;28;20039;-69
2021/07/19 00:53:46;;;;;;;27.85;21.73;;;;;;;21.37;83.80;98936.13;5076215;28;20380;-69
2021/07/19 00:56:12;;;;;;;35.10;22.85;;;;;;;21.31;83.57;98926.84;5076235;28;20054;-67
2021/07/19 00:58:41;;;;;;;31.05;23.70;;;;;;;21.30;83.55;98924.31;5076572;28;20050;-68
2021/07/19 01:01:10;;;;;;;36.78;24.15;;;;;;;21.21;83.91;98908.09;5074886;28;20040;-68
2021/07/19 01:03:35;;;;;;;40.35;24.90;;;;;;;21.22;83.86;98909.81;5092678;28;20399;-67
2021/07/19 01:06:02;;;;;;;36.78;23.58;;;;;;;21.31;83.88;98926.00;5075666;28;20416;-67
2021/07/19 01:08:30;;;;;;;34.75;23.17;;;;;;;21.28;83.83;98929.75;5075693;28;20036;-66
2021/07/19 01:11:00;;;;;;;32.75;22.08;;;;;;;21.17;84.42;98913.78;5093262;28;20126;-68
2021/07/19 01:13:27;;;;;;;33.33;21.85;;;;;;;21.12;84.23;98902.69;5076375;28;20136;-68
2021/07/19 01:15:54;;;;;;;36.78;24.10;;;;;;;21.07;84.13;98903.03;5091297;28;20044;-68
2021/07/19 01:18:22;;;;;;;34.55;22.67;;;;;;;21.24;84.40;98923.00;5075657;28;20035;-67
2021/07/19 01:21:04;;;;;;;35.08;22.20;;;;;;;21.24;83.86;98934.47;5092181;28;20061;-69
2021/07/19 01:23:59;;;;;;;36.28;22.08;;;;;;;21.25;83.97;98925.53;5108622;28;20042;-67
2021/07/19 01:26:47;;;;;;;29.73;21.15;;;;;;;21.27;83.83;98935.19;5091629;28;20625;-68
2021/07/19 01:29:14;;;;;;;32.28;20.38;;;;;;;21.30;83.76;98938.44;5108067;28;20040;-67
2021/07/19 01:31:43;;;;;;;31.55;21.65;;;;;;;21.25;83.67;98914.88;5075468;28;20035;-69
2021/07/19 01:34:13;;;;;;;30.00;19.98;;;;;;;21.37;83.43;98925.50;5075083;28;20036;-67
2021/07/19 01:36:45;;;;;;;32.65;21.08;;;;;;;21.24;83.65;98905.22;5074307;28;20043;-68
2021/07/19 01:39:27;;;;;;;31.52;19.33;;;;;;;21.31;83.68;98926.84;5110320;28;20443;-67
2021/07/19 01:41:56;;;;;;;28.95;20.33;;;;;;;21.37;83.57;98920.19;5109212;28;20075;-68
2021/07/19 01:44:23;;;;;;;29.35;19.50;;;;;;;21.37;84.00;98920.19;5109006;28;20098;-66
2021/07/19 01:46:49;;;;;;;27.98;19.38;;;;;;;21.51;83.24;98931.38;5090442;28;20047;-69
2021/07/19 01:49:17;;;;;;;27.23;18.80;;;;;;;21.47;83.35;98919.28;5073947;28;20045;-69
2021/07/19 01:51:44;;;;;;;26.45;20.10;;;;;;;21.56;82.79;98929.22;5074585;28;20040;-68
2021/07/19 01:54:11;;;;;;;26.23;19.63;;;;;;;21.64;82.62;98925.06;5075024;28;20039;-68
2021/07/19 01:56:38;;;;;;;28.55;20.45;;;;;;;21.58;82.64;98913.13;5091465;28;20127;-68
2021/07/19 01:59:06;;;;;;;30.05;19.10;;;;;;;21.63;82.46;98910.06;5059705;28;20523;-68
2021/07/19 02:01:40;;;;;;;28.95;18.60;;;;;;;21.69;82.25;98928.19;5091933;28;20049;-68
2021/07/19 02:04:08;;;;;;;24.50;18.65;;;;;;;21.50;82.43;98908.41;5093288;28;20148;-67
2021/07/19 02:06:36;;;;;;;25.17;18.23;;;;;;;21.51;82.35;98911.91;5076302;28;20067;-67
2021/07/19 02:09:06;;;;;;;24.52;17.25;;;;;;;21.67;82.33;98925.66;5091924;28;20040;-67
2021/07/19 02:11:46;;;;;;;22.00;16.70;;;;;;;21.70;81.79;98940.53;5077201;28;20150;-67
2021/07/19 02:14:15;;;;;;;24.98;17.50;;;;;;;21.72;81.72;98934.09;5090898;28;20551;-67
2021/07/19 02:16:53;;;;;;;22.25;17.25;;;;;;;21.70;81.49;98930.72;5075080;28;20050;-66
2021/07/19 02:19:23;;;;;;;25.23;17.55;;;;;;;21.75;81.41;98941.00;5059312;28;20419;-68
2021/07/19 02:21:49;;;;;;;25.80;17.73;;;;;;;21.67;81.86;98941.63;5109928;28;20492;-67
2021/07/19 02:24:26;;;;;;;24.92;17.17;;;;;;;21.59;82.09;98936.09;5090754;28;20123;-66
2021/07/19 02:27:12;;;;;;;27.77;18.48;;;;;;;21.63;82.18;98934.88;5109099;28;20044;-66
2021/07/19 02:29:39;;;;;;;28.15;17.90;;;;;;;21.83;81.57;98936.72;5092204;28;20043;-68
2021/07/19 02:32:06;;;;;;;26.67;18.23;;;;;;;21.77;81.06;98923.06;5057785;28;20058;-70
2021/07/19 02:34:32;;;;;;;28.65;18.55;;;;;;;21.78;81.21;98922.09;5092870;28;20043;-68
2021/07/19 02:36:58;;;;;;;31.23;18.60;;;;;;;21.77;81.51;98933.72;5074501;28;20039;-66
2021/07/19 02:39:27;;;;;;;28.17;19.48;;;;;;;21.81;81.48;98948.47;5075366;28;20130;-67
2021/07/19 02:41:54;;;;;;;25.85;18.58;;;;;;;21.86;81.68;98946.28;5058629;28;20048;-67
2021/07/19 02:44:23;;;;;;;27.10;19.45;;;;;;;21.86;81.65;98955.09;5059487;28;20043;-68
2021/07/19 02:47:09;;;;;;;33.42;20.00;;;;;;;21.91;81.42;98954.72;5064211;28;20500;-69
2021/07/19 02:49:36;;;;;;;32.88;21.38;;;;;;;21.77;81.89;98937.22;5056700;28;20055;-67
2021/07/19 02:52:03;;;;;;;26.77;19.73;;;;;;;21.87;81.55;98948.81;5092634;28;20055;-69
2021/07/19 02:54:29;;;;;;;34.42;20.45;;;;;;;21.97;81.04;98937.38;5091271;28;20563;-68
2021/07/19 02:56:57;;;;;;;25.55;18.33;;;;;;;22.03;80.97;98944.88;5073544;28;20046;-69
2021/07/19 02:59:24;;;;;;;26.77;18.33;;;;;;;22.07;80.53;98943.66;5092187;28;20043;-68
2021/07/19 03:01:54;;;;;;;26.55;19.02;;;;;;;22.02;80.74;98927.19;5090494;28;20518;-68
2021/07/19 03:04:22;;;;;;;26.65;19.60;;;;;;;22.04;80.61;98938.59;5092043;28;20047;-66
2021/07/19 03:06:48;;;;;;;27.08;19.58;;;;;;;22.03;81.25;98955.53;5108887;28;20044;-69
2021/07/19 03:09:17;;;;;;;28.08;20.52;;;;;;;21.91;81.39;98951.22;5091855;28;20087;-69
2021/07/19 03:11:48;;;;;;;30.15;20.35;;;;;;;21.99;81.03;98956.75;5090471;28;20038;-70
2021/07/19 03:14:23;;;;;;;27.50;20.33;;;;;;;21.99;81.23;98949.59;5074540;28;20050;-70
2021/07/19 03:16:52;;;;;;;29.85;21.17;;;;;;;21.89;81.49;98936.22;5091470;28;20067;-69
2021/07/19 03:19:20;;;;;;;29.40;20.23;;;;;;;22.01;81.03;98930.81;5092310;28;20378;-69
2021/07/19 03:21:49;;;;;;;26.15;18.65;;;;;;;22.15;80.64;98957.16;5075413;28;20047;-69
2021/07/19 03:24:23;;;;;;;30.48;19.05;;;;;;;22.32;79.95;98953.97;5075958;28;20397;-70
2021/07/19 03:26:50;;;;;;;31.27;19.33;;;;;;;22.36;79.72;98949.22;5093824;28;20051;-70
2021/07/19 03:29:18;;;;;;;27.05;18.70;;;;;;;22.51;78.99;98943.41;5094673;28;20044;-70
2021/07/19 03:32:04;;;;;;;26.17;18.83;;;;;;;22.66;78.66;98940.38;5095732;28;20467;-70
2021/07/19 03:34:32;;;;;;;25.77;17.25;;;;;;;22.88;77.66;98942.06;5076443;28;20528;-69
2021/07/19 03:36:58;;;;;;;20.85;16.00;;;;;;;22.86;77.47;98947.53;5111810;28;20039;-69
2021/07/19 03:39:25;;;;;;;25.17;16.65;;;;;;;23.00;77.11;98944.50;5060371;28;20040;-69
2021/07/19 03:42:00;;;;;;;21.42;15.60;;;;;;;23.50;75.55;98952.50;5095762;28;20043;-68
2021/07/19 03:44:28;;;;;;;19.85;13.75;;;;;;;23.82;73.36;98940.78;5076833;28;20066;-69
2021/07/19 03:46:56;;;;;;;19.35;14.88;;;;;;;23.86;73.62;98952.88;5076532;28;20050;-67
2021/07/19 03:49:24;;;;;;;20.25;14.82;;;;;;;23.67;74.14;98949.19;5076168;28;20497;-67
2021/07/19 03:51:51;;;;;;;17.98;13.93;;;;;;;23.39;75.04;98957.97;5077723;28;20408;-68
2021/07/19 03:54:17;;;;;;;21.40;15.55;;;;;;;23.13;76.43;98961.13;5092783;28;20071;-67
2021/07/19 03:56:44;;;;;;;21.08;16.15;;;;;;;22.91;77.51;98955.97;5112110;28;20040;-68
2021/07/19 03:59:13;;;;;;;19.63;15.05;;;;;;;22.79;77.77;98947.19;5077351;28;20164;-68
2021/07/19 04:01:40;;;;;;;21.42;15.40;;;;;;;22.71;78.18;98962.16;5094514;28;20079;-69
2021/07/19 04:04:08;;;;;;;20.02;15.18;;;;;;;22.74;77.33;98929.91;5093744;28;20507;-69
2021/07/19 04:06:42;;;;;;;20.70;14.70;;;;;;;23.07;77.30;98972.34;5078789;28;20047;-69
2021/07/19 04:09:08;;;;;;;23.60;14.85;;;;;;;23.45;75.54;98962.75;5093031;28;20535;-67
2021/07/19 04:11:38;;;;;;;19.35;14.15;;;;;;;24.09;73.09;98970.31;5077499;28;20443;-68
2021/07/19 04:14:11;;;;;;;17.10;12.95;;;;;;;24.68;71.37;98974.63;5076944;28;20453;-68
2021/07/19 04:16:39;;;;;;;18.08;12.73;;;;;;;24.87;69.53;98971.03;5059709;28;20512;-68
2021/07/19 04:19:05;;;;;;;16.73;13.43;;;;;;;25.20;68.45;98975.84;5059795;28;20036;-68
2021/07/19 04:21:33;;;;;;;19.48;13.20;;;;;;;26.06;65.91;98948.69;5076127;28;20535;-67
2021/07/19 04:23:59;;;;;;;12.07;10.80;;;;;;;26.88;62.86;98957.16;5092618;28;20070;-68
2021/07/19 04:26:30;;;;;;;14.07;11.38;;;;;;;26.98;61.61;98945.50;5077096;28;20134;-69
2021/07/19 04:29:02;;;;;;;18.15;11.20;;;;;;;26.84;62.04;98965.69;5094419;28;20054;-67
2021/07/19 04:31:32;;;;;;;14.35;10.77;;;;;;;26.96;62.06;98961.72;5060885;28;20076;-69
2021/07/19 04:34:00;;;;;;;12.68;9.63;;;;;;;28.33;58.33;98970.38;5094309;28;20059;-69
2021/07/19 04:36:36;;;;;;;13.05;9.63;;;;;;;28.83;55.77;98961.22;5113025;28;20051;-68
2021/07/19 04:39:03;;;;;;;11.73;9.57;;;;;;;27.84;58.39;98964.94;5074882;28;20043;-69
2021/07/19 04:41:32;;;;;;;12.90;9.13;;;;;;;27.70;59.42;98957.53;5092332;28;20039;-68
2021/07/19 04:43:58;;;;;;;10.73;9.25;;;;;;;27.79;59.22;98965.44;5110259;28;20039;-68
2021/07/19 04:46:24;;;;;;;11.57;8.98;;;;;;;27.76;59.24;98959.56;5109361;28;20055;-70
2021/07/19 04:49:00;;;;;;;12.32;9.60;;;;;;;27.30;60.15;98950.16;5105993;27;20474;-69
2021/07/19 04:51:26;;;;;;;14.15;10.77;;;;;;;27.29;60.51;98960.03;5122138;28;20051;-69
2021/07/19 04:53:53;;;;;;;11.52;9.23;;;;;;;27.41;59.94;98948.00;5087380;28;20568;-68
2021/07/19 04:56:20;;;;;;;12.90;9.98;;;;;;;26.96;61.77;98952.84;5104431;28;20046;-69
2021/07/19 04:58:49;;;;;;;12.23;9.40;;;;;;;26.86;62.60;98952.97;5087599;28;20044;-68
2021/07/19 05:01:15;;;;;;;12.05;10.63;;;;;;;27.89;59.02;98957.22;5088383;28;20490;-69
2021/07/19 05:03:44;;;;;;;12.25;9.93;;;;;;;28.22;57.61;98946.47;5087186;28;20040;-69
2021/07/19 05:06:10;;;;;;;15.95;9.85;;;;;;;27.99;58.52;98952.50;5104381;28;20161;-70
2021/07/19 05:08:37;;;;;;;12.05;9.50;;;;;;;29.42;54.28;98958.00;5105668;28;20380;-70
2021/07/19 05:11:03;;;;;;;9.48;8.45;;;;;;;30.83;50.96;98954.94;5104301;28;20043;-70
2021/07/19 05:13:31;;;;;;;11.60;10.40;;;;;;;30.39;51.20;98961.06;5085930;28;20040;-70
2021/07/19 05:15:58;;;;;;;14.90;9.85;;;;;;;31.63;48.17;98957.69;5104603;28;20048;-69
2021/07/19 05:18:25;;;;;;;12.00;8.50;;;;;;;32.66;44.87;98951.81;5087380;28;20039;-69
2021/07/19 05:20:51;;;;;;;12.05;8.57;;;;;;;32.09;46.38;98954.66;5105052;28;20446;-70
2021/07/19 05:23:25;;;;;;;11.10;9.02;;;;;;;31.11;48.68;98952.41;5104971;28;20048;-68
2021/07/19 05:25:51;;;;;;;11.48;9.02;;;;;;;30.27;50.72;98951.75;5087500;28;20073;-69
2021/07/19 05:28:17;;;;;;;12.48;9.80;;;;;;;30.30;50.89;98968.41;5104850;28;20047;-68
2021/07/19 05:30:48;;;;;;;15.88;10.25;;;;;;;30.41;50.91;98963.59;5104852;28;20538;-68
2021/07/19 05:33:16;;;;;;;13.50;8.93;;;;;;;30.54;50.16;98958.44;5104586;28;20058;-69
2021/07/19 05:35:42;;;;;;;14.45;10.05;;;;;;;30.14;51.55;98957.75;5103138;28;20058;-69
2021/07/19 05:38:09;;;;;;;13.50;9.48;;;;;;;30.11;51.42;98947.34;5104829;28;20039;-68
2021/07/19 05:40:37;;;;;;;11.75;9.52;;;;;;;29.23;54.12;98962.97;5103541;28;20213;-68
2021/07/19 05:43:03;;;;;;;14.38;9.15;;;;;;;30.69;50.18;98972.81;5102528;28;20044;-69
2021/07/19 05:45:29;;;;;;;13.85;8.95;;;;;;;31.32;48.80;98962.53;5105356;28;20042;-70
2021/07/19 05:47:57;;;;;;;13.48;9.23;;;;;;;31.81;46.66;98951.88;5104169;28;20060;-68
2021/07/19 05:50:24;;;;;;;9.82;8.82;;;;;;;32.22;46.00;98957.50;5105633;28;20051;-70
2021/07/19 05:52:49;;;;;;;11.02;8.63;;;;;;;31.85;46.59;98947.75;5106245;28;20075;-70
2021/07/19 05:55:15;;;;;;;11.10;8.73;;;;;;;32.09;45.90;98950.09;5106045;28;20074;-71
2021/07/19 05:57:41;;;;;;;11.75;9.20;;;;;;;32.67;44.80;98963.47;5104931;28;20453;-71
2021/07/19 06:00:15;;;;;;;13.30;8.25;;;;;;;32.61;44.74;98969.69;5091995;28;20117;-68
2021/07/19 06:02:42;;;;;;;13.90;8.82;;;;;;;32.79;44.49;98967.38;5090902;28;20044;-72
2021/07/19 06:05:09;;;;;;;13.68;7.32;;;;;;;33.16;43.80;98964.25;5073183;28;20039;-70
2021/07/19 06:07:35;;;;;;;15.50;7.63;;;;;;;32.88;44.43;98968.06;5091455;28;20832;-68
2021/07/19 06:10:03;;;;;;;10.50;6.82;;;;;;;33.72;42.15;98958.66;5073441;28;20047;-70
2021/07/19 06:12:28;;;;;;;11.82;7.00;;;;;;;33.73;42.43;98967.66;5090154;28;20051;-70
2021/07/19 06:14:54;;;;;;;9.40;7.30;;;;;;;35.08;39.14;98963.78;5090961;28;20369;-68
2021/07/19 06:17:20;;;;;;;9.73;6.00;;;;;;;33.47;42.54;98976.53;5090971;28;20040;-68
2021/07/19 06:19:46;;;;;;;10.75;6.90;;;;;;;32.64;44.82;98972.00;5072191;28;20040;-69
2021/07/19 06:22:12;;;;;;;9.45;6.20;;;;;;;32.63;45.07;98979.28;5073077;28;20054;-68
2021/07/19 06:24:38;;;;;;;12.05;6.53;;;;;;;34.66;40.39;98965.91;5089446;28;20442;-69
2021/07/19 06:27:05;;;;;;;12.23;6.13;;;;;;;34.39;40.28;98957.78;5088184;28;20077;-71
2021/07/19 06:29:31;;;;;;;11.57;6.97;;;;;;;33.96;41.24;98967.31;5089324;28;20417;-66
2021/07/19 06:31:56;;;;;;;7.72;6.35;;;;;;;33.92;40.91;98977.75;5090420;28;20047;-69
2021/07/19 06:34:22;;;;;;;7.75;6.15;;;;;;;35.45;37.64;98973.91;5091001;28;20850;-69
2021/07/19 06:36:48;;;;;;;6.60;5.90;;;;;;;34.17;40.12;98961.69;5072882;28;20044;-68
2021/07/19 06:39:15;;;;;;;6.57;5.82;;;;;;;34.36;39.95;98970.94;5090671;28;20500;-67
2021/07/19 06:41:42;;;;;;;10.35;6.78;;;;;;;34.89;38.65;98971.75;5091156;28;20124;-69
2021/07/19 06:44:07;;;;;;;9.35;6.65;;;;;;;34.40;39.57;98967.59;5090994;28;20134;-69
2021/07/19 06:46:34;;;;;;;12.63;6.10;;;;;;;34.78;38.82;98969.66;5087319;28;20044;-69
2021/07/19 06:49:00;;;;;;;7.50;5.88;;;;;;;34.51;39.00;98976.16;5087102;28;20412;-69
2021/07/19 06:51:25;;;;;;;8.45;6.95;;;;;;;34.36;39.53;98971.78;5069630;28;20054;-70
2021/07/19 06:53:51;;;;;;;13.30;7.13;;;;;;;35.78;37.11;98981.09;5088166;28;20039;-70
2021/07/19 06:56:17;;;;;;;11.13;6.80;;;;;;;35.32;37.73;98973.97;5086898;28;20040;-68
2021/07/19 06:58:43;;;;;;;7.90;7.05;;;;;;;33.82;40.99;98985.44;5087629;28;20067;-70
2021/07/19 07:01:08;;;;;;;11.07;7.20;;;;;;;33.64;41.63;98977.84;5070081;28;20523;-69
2021/07/19 07:03:34;;;;;;;6.75;6.15;;;;;;;34.26;40.13;98970.50;5088938;28;20507;-69
2021/07/19 07:06:00;;;;;;;12.70;6.82;;;;;;;34.69;38.70;98976.34;5088337;28;20036;-70
2021/07/19 07:08:25;;;;;;;12.07;6.68;;;;;;;33.04;42.95;98971.28;5087633;28;20101;-68
2021/07/19 07:10:52;;;;;;;7.97;7.18;;;;;;;33.32;41.99;98986.66;5087339;28;20048;-70
2021/07/19 07:13:18;;;;;;;13.23;6.63;;;;;;;33.88;40.38;98970.22;5090743;28;20128;-68
2021/07/19 07:15:44;;;;;;;12.85;6.88;;;;;;;34.64;38.29;98984.31;5086178;28;20440;-69
2021/07/19 07:18:10;;;;;;;9.43;6.90;;;;;;;34.27;39.16;98975.72;5087800;28;20040;-69
2021/07/19 07:20:36;;;;;;;9.05;6.20;;;;;;;33.18;41.48;98978.44;5087855;28;20548;-69
2021/07/19 07:23:03;;;;;;;8.32;7.07;;;;;;;33.37;41.25;98970.63;5069419;28;20131;-69
2021/07/19 07:25:29;;;;;;;11.93;7.05;;;;;;;33.35;40.62;98983.56;5089219;28;20473;-70
2021/07/19 07:27:55;;;;;;;10.27;6.97;;;;;;;33.54;40.51;98985.53;5089230;28;20043;-69
2021/07/19 07:30:20;;;;;;;7.50;6.40;;;;;;;33.79;40.55;98975.81;5087150;28;20512;-69
2021/07/19 07:32:47;;;;;;;11.13;6.88;;;;;;;33.83;39.73;98959.13;5088135;28;20039;-69
2021/07/19 07:35:14;;;;;;;9.25;6.90;;;;;;;34.61;38.33;98976.56;5087043;28;20499;-69
2021/07/19 07:37:39;;;;;;;7.78;6.70;;;;;;;34.08;39.09;98976.50;5087675;28;20036;-66
2021/07/19 07:40:07;;;;;;;9.65;6.63;;;;;;;32.65;42.60;98970.97;5087197;28;20148;-68
2021/07/19 07:42:33;;;;;;;8.93;6.53;;;;;;;33.59;40.54;98966.78;5087142;28;20480;-69
2021/07/19 07:44:59;;;;;;;9.23;6.43;;;;;;;34.16;39.29;98970.88;5088674;28;20135;-68
2021/07/19 07:47:25;;;;;;;9.32;6.10;;;;;;;33.45;41.33;98973.19;5086760;28;20621;-70
2021/07/19 07:49:51;;;;;;;11.27;6.18;;;;;;;33.57;39.88;98981.56;5087605;28;20126;-72
2021/07/19 07:52:18;;;;;;;12.65;6.22;;;;;;;35.15;37.18;98970.88;5087512;28;20043;-69
2021/07/19 07:54:44;;;;;;;9.90;6.50;;;;;;;35.04;36.24;98985.13;5088027;28;20580;-67
2021/07/19 07:57:10;;;;;;;9.55;6.35;;;;;;;36.17;34.51;98969.97;5086346;28;20052;-70
2021/07/19 07:59:39;;;;;;;22.58;16.88;;;;;;;34.59;37.29;98967.78;5089232;28;20130;-70
2021/07/19 08:02:05;;;;;;;14.80;6.35;;;;;;;33.70;37.83;98960.75;5087197;28;20162;-67
2021/07/19 08:04:31;;;;;;;10.23;6.25;;;;;;;34.21;36.48;98964.84;5089372;28;20028;-67
2021/07/19 08:06:57;;;;;;;10.43;5.88;;;;;;;34.77;35.52;98954.38;5086967;28;20416;-71
2021/07/19 08:09:23;;;;;;;10.70;5.45;;;;;;;36.09;32.80;98956.63;5088384;28;20513;-69
2021/07/19 08:11:49;;;;;;;9.52;5.85;;;;;;;36.49;32.39;98953.63;5088272;28;20118;-66
2021/07/19 08:14:15;;;;;;;12.70;6.10;;;;;;;34.86;35.07;98942.28;5087542;28;20487;-69
2021/07/19 08:16:41;;;;;;;6.68;4.82;;;;;;;34.82;34.79;98949.19;5086885;28;20036;-70
2021/07/19 08:19:08;;;;;;;11.75;6.05;;;;;;;36.22;32.49;98955.69;5087454;28;20048;-64
2021/07/19 08:21:35;;;;;;;13.27;6.22;;;;;;;35.73;33.17;98918.31;5088624;28;20052;-64
2021/07/19 08:24:01;;;;;;;13.07;6.30;;;;;;;36.34;32.46;98953.94;5089130;28;20394;-67
2021/07/19 08:26:27;;;;;;;10.85;5.80;;;;;;;35.84;34.02;98936.72;5090419;28;20462;-67
2021/07/19 08:28:55;;;;;;;12.25;5.70;;;;;;;35.78;33.53;98946.56;5088032;28;20087;-65
2021/07/19 08:31:25;;;;;;;9.07;5.97;;;;;;;36.13;32.31;98946.13;5087567;28;20047;-63
2021/07/19 08:33:51;;;;;;;13.00;5.88;;;;;;;36.53;31.41;98952.13;5087044;28;20055;-63
2021/07/19 08:36:17;;;;;;;11.43;6.30;;;;;;;35.80;32.83;98936.28;5087861;28;20459;-64
2021/07/19 08:38:44;;;;;;;13.25;5.55;;;;;;;37.18;29.83;98949.81;5087861;28;20131;-65
2021/07/19 08:41:12;;;;;;;10.38;5.80;;;;;;;37.56;29.10;98921.44;5087653;28;20083;-63
2021/07/19 08:43:41;;;;;;;8.63;5.35;;;;;;;36.41;31.02;98941.09;5086117;28;20062;-63
2021/07/19 08:46:08;;;;;;;7.68;5.35;;;;;;;36.07;31.49;98922.50;5087801;28;20070;-64
2021/07/19 08:48:34;;;;;;;7.05;5.25;;;;;;;34.99;33.04;98925.97;5086757;28;20064;-64
2021/07/19 08:51:02;;;;;;;7.68;5.72;;;;;;;35.38;32.37;98921.44;5088428;28;20126;-62
2021/07/19 08:53:29;;;;;;;7.97;5.20;;;;;;;34.54;34.22;98918.69;5088641;28;20051;-65
2021/07/19 08:55:56;;;;;;;9.07;5.90;;;;;;;34.09;35.15;98922.00;5086656;28;20421;-63
2021/07/19 08:58:23;;;;;;;12.27;6.15;;;;;;;32.64;37.78;98909.72;5086289;28;20047;-63
2021/07/19 09:00:48;;;;;;;10.13;6.00;;;;;;;33.70;36.05;98908.38;5088417;28;20043;-64
2021/07/19 09:03:14;;;;;;;8.20;5.93;;;;;;;33.51;36.57;98910.00;5087962;28;20050;-65
2021/07/19 09:05:40;;;;;;;8.70;6.10;;;;;;;34.20;35.60;98923.28;5088363;28;20044;-65
2021/07/19 09:08:06;;;;;;;11.98;6.40;;;;;;;33.25;36.57;98923.41;5086347;28;20086;-64
2021/07/19 09:10:32;;;;;;;13.73;6.75;;;;;;;32.68;36.54;98917.25;5088647;28;20044;-66
2021/07/19 09:12:59;;;;;;;13.38;5.47;;;;;;;32.98;34.23;98917.88;5086716;28;20124;-65
2021/07/19 09:15:34;;;;;;;11.00;5.43;;;;;;;32.16;35.61;98907.69;5088106;28;20063;-65
2021/07/19 09:18:01;;;;;;;10.25;5.80;;;;;;;32.25;35.41;98911.13;5085480;28;20051;-64
2021/07/19 09:20:34;;;;;;;11.50;5.50;;;;;;;32.70;35.27;98898.09;5086782;28;20082;-63
2021/07/19 09:23:00;;;;;;;6.45;5.38;;;;;;;32.79;34.84;98896.94;5085100;28;20131;-65
2021/07/19 09:25:26;;;;;;;16.80;5.95;;;;;;;32.35;35.31;98900.78;5088213;28;20451;-65
2021/07/19 09:28:12;;;;;;;14.50;5.72;;;;;;;31.21;37.31;98902.53;5087728;28;20044;-64
2021/07/19 09:30:43;;;;;;;10.18;5.72;;;;;;;30.36;39.56;98907.47;5089518;28;20064;-63
2021/07/19 09:33:11;;;;;;;9.35;5.97;;;;;;;30.14;40.13;98903.81;5086686;28;20122;-66
2021/07/19 09:35:41;;;;;;;13.55;5.95;;;;;;;29.83;41.21;98908.44;5091515;28;20451;-64
2021/07/19 09:38:10;;;;;;;9.20;6.18;;;;;;;29.73;41.61;98901.41;5090553;28;20036;-65
2021/07/19 09:40:38;;;;;;;8.63;5.78;;;;;;;29.92;41.08;98891.16;5091277;28;20139;-65
2021/07/19 09:43:26;;;;;;;10.88;6.07;;;;;;;30.53;40.81;98898.22;5091221;28;20451;-62
2021/07/19 09:46:10;;;;;;;13.60;6.78;;;;;;;30.80;39.82;98898.63;5092444;28;20046;-64
2021/07/19 09:48:36;;;;;;;12.43;6.05;;;;;;;30.71;38.15;98888.94;5091509;28;20059;-65
2021/07/19 09:51:02;;;;;;;9.65;5.70;;;;;;;30.75;37.22;98896.47;5093105;28;20068;-64
2021/07/19 09:53:38;;;;;;;8.77;5.30;;;;;;;30.84;36.66;98911.56;5075101;28;20075;-62
2021/07/19 09:56:13;;;;;;;9.00;5.65;;;;;;;30.69;36.51;98908.00;5091902;28;20048;-66
2021/07/19 09:58:47;;;;;;;11.43;6.18;;;;;;;30.33;36.75;98888.94;5092192;28;20444;-64
2021/07/19 10:01:24;;;;;;;11.90;5.43;;;;;;;30.46;36.96;98913.44;5089504;28;20109;-63
2021/07/19 10:04:02;;;;;;;8.95;5.63;;;;;;;30.04;38.75;98897.81;5090952;28;20046;-66
2021/07/19 10:06:30;;;;;;;9.68;5.75;;;;;;;30.35;38.25;98897.69;5075260;28;20038;-69
2021/07/19 10:08:57;;;;;;;10.88;6.25;;;;;;;30.51;38.53;98911.06;5089850;28;20071;-66
2021/07/19 10:11:23;;;;;;;6.70;5.57;;;;;;;30.61;38.14;98908.94;5071370;28;20074;-66
2021/07/19 10:13:49;;;;;;;12.68;6.28;;;;;;;30.45;37.43;98895.56;5089712;28;20043;-71
2021/07/19 10:16:17;;;;;;;10.80;6.38;;;;;;;30.35;38.22;98886.91;5089894;28;20040;-67
2021/07/19 10:18:46;;;;;;;9.35;5.72;;;;;;;30.38;37.73;98899.19;5090470;28;20044;-66
2021/07/19 10:21:12;;;;;;;7.25;5.40;;;;;;;30.14;36.63;98897.56;5090977;28;20055;-66
2021/07/19 10:23:39;;;;;;;8.40;5.57;;;;;;;29.96;36.94;98896.00;5073697;28;20040;-65
2021/07/19 10:26:04;;;;;;;9.15;5.20;;;;;;;30.24;37.18;98881.97;5092074;28;20064;-68
2021/07/19 10:28:31;;;;;;;6.47;5.32;;;;;;;30.50;36.91;98893.19;5090366;28;20090;-67
2021/07/19 10:30:56;;;;;;;8.73;5.68;;;;;;;30.57;37.66;98891.41;5074250;28;20076;-70
2021/07/19 10:33:22;;;;;;;7.95;5.80;;;;;;;30.47;37.69;98876.50;5092040;28;20075;-65
2021/07/19 10:35:49;;;;;;;11.65;5.93;;;;;;;30.22;39.42;98889.41;5091603;28;20048;-67
2021/07/19 10:38:18;;;;;;;14.50;6.65;;;;;;;30.19;38.61;98895.16;5089236;28;20070;-66
2021/07/19 10:40:44;;;;;;;6.90;5.55;;;;;;;30.31;38.22;98888.28;5090682;28;20040;-66
2021/07/19 10:43:19;;;;;;;8.48;5.90;;;;;;;30.44;38.01;98869.59;5090864;28;20447;-66
2021/07/19 10:45:51;;;;;;;7.72;5.57;;;;;;;30.54;37.79;98882.84;5092253;28;20469;-65
2021/07/19 10:48:24;;;;;;;7.47;5.75;;;;;;;30.61;37.19;98871.16;5092192;28;20056;-65
2021/07/19 10:50:50;;;;;;;7.32;5.85;;;;;;;30.51;36.71;98873.25;5092499;28;20044;-65
2021/07/19 10:53:19;;;;;;;6.43;5.25;;;;;;;30.75;36.30;98882.13;5091352;28;20044;-66
2021/07/19 10:55:56;;;;;;;7.78;5.30;;;;;;;30.72;36.64;98875.25;5092485;28;20463;-66
2021/07/19 10:58:28;;;;;;;7.63;6.07;;;;;;;30.43;37.66;98865.22;5092343;28;20408;-66
2021/07/19 11:00:55;;;;;;;11.05;5.78;;;;;;;30.43;37.67;98870.63;5092835;28;20047;-65
2021/07/19 11:03:21;;;;;;;10.52;5.63;;;;;;;30.77;36.46;98871.97;5090810;28;20077;-66
2021/07/19 11:05:51;;;;;;;9.45;5.00;;;;;;;30.59;35.12;98861.56;5091322;28;20044;-65
2021/07/19 11:08:24;;;;;;;6.10;4.72;;;;;;;30.67;34.39;98865.00;5092383;28;20065;-65
2021/07/19 11:10:51;;;;;;;10.95;5.28;;;;;;;30.74;35.50;98867.78;5092177;28;20039;-64
2021/07/19 11:13:27;;;;;;;13.80;5.15;;;;;;;30.81;35.80;98863.31;5090500;28;20269;-64
2021/07/19 11:15:53;;;;;;;8.20;4.90;;;;;;;30.85;36.06;98848.41;5091871;28;20055;-65
2021/07/19 11:18:26;;;;;;;13.70;5.40;;;;;;;30.85;36.11;98858.38;5092179;28;20047;-64
2021/07/19 11:20:54;;;;;;;11.55;5.22;;;;;;;30.74;36.49;98845.34;5092171;28;20088;-65
2021/07/19 11:23:28;;;;;;;5.85;5.15;;;;;;;30.67;36.49;98846.09;5092474;28;20126;-66
2021/07/19 11:25:54;;;;;;;8.85;4.88;;;;;;;30.74;34.02;98831.84;5091726;28;20408;-65
2021/07/19 11:28:22;;;;;;;6.78;5.00;;;;;;;30.52;35.33;98842.56;5090290;28;20614;-65